createdAt,value
2018-09-13T00:17:45.083Z,98.40
2018-09-13T01:12:03.646Z,99.90
2018-09-13T01:43:20.492Z,99.90
2018-09-13T02:11:45.718Z,99.90
2018-09-13T02:43:02.061Z,99.90
2018-09-13T03:14:19.116Z,99.90
2018-09-13T03:42:44.121Z,99.90
2018-09-13T04:14:01.527Z,99.90
2018-09-13T04:42:25.801Z,99.90
2018-09-13T05:05:04.147Z,98.60
2018-09-13T05:07:34.376Z,98.20
2018-09-13T05:10:04.770Z,98.20
2018-09-13T05:12:35.612Z,98.20
2018-09-13T05:15:06.681Z,98.40
2018-09-13T05:17:36.958Z,98.40
2018-09-13T05:20:08.042Z,98.30
2018-09-13T05:22:38.581Z,98.20
2018-09-13T05:25:09.543Z,98.50
2018-09-13T05:27:40.205Z,99.20
2018-09-13T05:30:11.429Z,98.90
2018-09-13T05:32:42.405Z,99.00
2018-09-13T05:35:13.652Z,99.10
2018-09-13T05:37:44.569Z,99.10
2018-09-13T05:40:16.980Z,99.20
2018-09-13T05:42:48.215Z,98.50
2018-09-13T05:45:18.878Z,98.40
2018-09-13T05:47:49.647Z,98.00
2018-09-13T05:50:21.251Z,98.30
2018-09-13T05:52:52.281Z,98.60
2018-09-13T05:55:23.684Z,98.90
2018-09-13T05:57:55.137Z,98.70
2018-09-13T06:00:26.679Z,98.40
2018-09-13T06:02:58.223Z,98.60
2018-09-13T06:05:30.546Z,98.50
2018-09-13T06:08:02.920Z,98.60
2018-09-13T06:10:34.716Z,98.40
2018-09-13T06:44:43.365Z,97.90
2018-09-13T07:13:06.731Z,96.80
2018-09-13T07:44:22.538Z,94.00
2018-09-13T08:13:08.417Z,93.30
2018-09-13T08:44:24.237Z,91.70
2018-09-13T08:52:38.619Z,91.70
2018-09-13T09:23:55.305Z,88.70
2018-09-13T09:46:49.934Z,86.70
2018-09-13T09:49:18.658Z,87.30
2018-09-13T09:51:58.159Z,86.20
2018-09-13T09:54:26.925Z,85.10
2018-09-13T10:05:34.840Z,85.70
2018-09-13T10:08:03.585Z,84.60
2018-09-13T10:13:25.371Z,82.30
2018-09-13T10:15:59.907Z,80.80
2018-09-13T10:18:36.548Z,80.50
2018-09-13T10:21:10.750Z,80.80
2018-09-13T10:23:45.550Z,79.70
2018-09-13T10:26:38.493Z,79.90
2018-09-13T10:29:13.225Z,79.70
2018-09-13T10:31:47.074Z,80.00
2018-09-13T10:36:29.126Z,79.90
2018-09-13T10:39:03.834Z,80.70
2018-09-13T10:44:31.386Z,83.40
2018-09-13T10:47:06.141Z,82.40
2018-09-13T10:49:39.997Z,80.60
2018-09-13T10:55:01.714Z,80.00
2018-09-13T10:57:36.506Z,79.90
2018-09-13T11:00:05.350Z,80.40
2018-09-13T11:02:49.246Z,80.10
2018-09-13T11:05:18.063Z,81.00
2018-09-13T11:07:46.963Z,79.40
2018-09-13T11:10:16.925Z,79.90
2018-09-13T11:12:51.792Z,79.00
2018-09-13T11:15:36.610Z,78.60
2018-09-13T11:18:06.762Z,79.70
2018-09-13T11:20:36.722Z,78.40
2018-09-13T11:23:05.802Z,77.70
2018-09-13T11:25:34.519Z,77.80
2018-09-13T11:28:03.372Z,77.90
2018-09-13T11:30:32.096Z,76.30
2018-09-13T11:33:00.827Z,77.10
2018-09-13T11:35:29.771Z,75.40
2018-09-13T11:37:59.090Z,74.40
2018-09-13T11:40:28.112Z,73.70
2018-09-13T11:42:56.838Z,73.90
2018-09-13T11:45:25.633Z,72.20
2018-09-13T11:47:55.519Z,71.00
2018-09-13T11:50:24.362Z,68.40
2018-09-13T11:52:53.102Z,66.70
2018-09-13T11:55:24.907Z,65.50
2018-09-13T11:57:53.769Z,64.20
2018-09-13T12:00:22.459Z,62.40
2018-09-13T12:02:51.265Z,61.90
2018-09-13T12:05:20.018Z,62.90
2018-09-13T12:07:48.771Z,63.20
2018-09-13T12:10:17.619Z,65.40
2018-09-13T12:12:46.436Z,66.70
2018-09-13T12:15:15.206Z,66.80
2018-09-13T12:17:44.415Z,66.50
2018-09-13T12:20:13.195Z,67.70
2018-09-13T12:22:43.009Z,69.50
2018-09-13T12:25:11.965Z,70.50
2018-09-13T12:27:40.844Z,69.60
2018-09-13T12:30:20.294Z,69.70
2018-09-13T12:32:49.891Z,69.60
2018-09-13T12:35:18.624Z,70.70
2018-09-13T12:37:47.431Z,70.30
2018-09-13T12:40:16.266Z,68.40
2018-09-13T12:42:45.883Z,65.00
2018-09-13T12:45:14.678Z,63.70
2018-09-13T12:50:36.436Z,61.70
2018-09-13T12:53:05.988Z,62.10
2018-09-13T12:55:39.861Z,63.90
2018-09-13T12:58:13.011Z,66.50
2018-09-13T13:00:42.277Z,68.60
2018-09-13T13:03:11.043Z,70.80
2018-09-13T13:05:39.971Z,71.30
2018-09-13T13:08:08.740Z,71.80
2018-09-13T13:10:37.522Z,71.30
2018-09-13T13:13:06.419Z,71.90
2018-09-13T13:15:35.246Z,72.10
2018-09-13T13:18:04.014Z,71.80
2018-09-13T13:20:32.765Z,72.20
2018-09-13T13:23:06.050Z,72.60
2018-09-13T13:25:34.834Z,71.90
2018-09-13T13:28:03.716Z,72.30
2018-09-13T13:30:32.477Z,72.00
2018-09-13T13:33:01.570Z,71.60
2018-09-13T13:35:30.323Z,71.10
2018-09-13T13:37:59.117Z,71.00
2018-09-13T13:40:27.913Z,70.30
2018-09-13T13:42:56.651Z,70.40
2018-09-13T13:45:25.593Z,70.70
2018-09-13T13:47:54.330Z,70.90
2018-09-13T13:50:23.053Z,71.60
2018-09-13T13:52:52.265Z,72.10
2018-09-13T13:55:21.072Z,72.20
2018-09-13T13:57:51.030Z,72.40
2018-09-13T14:00:20.070Z,72.60
2018-09-13T14:20:06.952Z,67.00
2018-09-13T14:45:38.020Z,72.00
2018-09-13T14:50:59.727Z,73.00
2018-09-13T14:53:29.001Z,73.00
2018-09-13T14:55:58.478Z,72.10
2018-09-13T14:58:27.254Z,71.80
2018-09-13T15:01:06.772Z,71.60
2018-09-13T15:03:35.983Z,70.00
2018-09-13T15:06:04.803Z,69.70
2018-09-13T15:11:45.018Z,67.80
2018-09-13T15:14:14.951Z,67.00
2018-09-13T15:16:43.720Z,67.30
2018-09-13T15:19:12.581Z,67.40
2018-09-13T15:21:57.517Z,67.30
2018-09-13T15:24:26.402Z,67.80
2018-09-13T15:26:57.479Z,67.60
2018-09-13T15:29:45.681Z,67.70
2018-09-13T15:32:14.462Z,67.90
2018-09-13T15:34:43.514Z,68.50
2018-09-13T15:40:14.016Z,69.50
2018-09-13T15:42:43.005Z,69.60
2018-09-13T15:48:13.394Z,70.90
2018-09-13T15:50:43.957Z,70.00
2018-09-13T15:53:13.216Z,70.30
2018-09-13T15:56:01.643Z,70.30
2018-09-13T15:58:31.643Z,66.60
2018-09-13T16:01:01.763Z,63.50
2018-09-13T16:03:30.821Z,62.00
2018-09-13T16:06:00.785Z,59.50
2018-09-13T16:08:30.433Z,58.50
2018-09-13T16:14:00.955Z,58.50
2018-09-13T16:16:30.415Z,58.50
2018-09-13T16:19:01.623Z,58.50
2018-09-13T16:21:33.296Z,58.00
2018-09-13T16:24:26.220Z,57.70
2018-09-13T16:29:40.484Z,59.50
2018-09-13T16:32:10.335Z,60.50
2018-09-13T16:34:53.898Z,61.30
2018-09-13T16:43:10.684Z,65.30
2018-09-13T16:45:41.236Z,66.80
2018-09-13T16:48:10.275Z,66.70
2018-09-13T16:50:58.968Z,67.50
2018-09-13T16:56:25.555Z,70.10
2018-09-13T16:58:54.292Z,71.30
2018-09-13T17:01:28.115Z,71.90
2018-09-13T17:03:56.843Z,72.70
2018-09-13T17:06:25.672Z,73.10
2018-09-13T17:09:03.471Z,73.50
2018-09-13T17:11:36.556Z,74.50
2018-09-13T17:16:58.749Z,73.70
2018-09-13T17:19:27.573Z,72.80
2018-09-13T17:21:56.372Z,72.90
2018-09-13T17:30:14.360Z,75.50
2018-09-13T17:32:43.204Z,76.50
2018-09-13T17:35:25.559Z,77.60
2018-09-13T17:37:59.856Z,78.40
2018-09-13T18:03:31.099Z,85.90
2018-09-13T18:08:53.627Z,87.50
2018-09-13T18:11:22.491Z,88.20
2018-09-13T18:13:55.817Z,88.90
2018-09-13T18:16:24.906Z,89.30
2018-09-13T18:18:53.737Z,89.70
2018-09-13T18:21:23.288Z,90.20
2018-09-13T18:23:52.845Z,90.50
2018-09-13T18:26:34.638Z,90.70
2018-09-13T18:29:03.526Z,90.90
2018-09-13T18:43:22.243Z,92.40
2018-09-13T18:45:53.261Z,92.60
2018-09-13T19:17:13.831Z,95.00
2018-09-13T19:48:33.947Z,96.70
2018-09-13T20:17:04.130Z,99.90
2018-09-13T20:48:21.308Z,99.90
2018-09-13T21:19:37.849Z,99.90
2018-09-13T21:48:02.672Z,99.90
2018-09-13T22:19:27.594Z,99.90
2018-09-13T23:48:17.947Z,99.90
2018-09-13T23:56:56.041Z,99.90
2018-09-13T23:59:26.885Z,99.90
